createdAt,value
2022-10-06T00:04:03.738Z,20.02
2022-10-06T00:09:25.398Z,20.00
2022-10-06T00:14:47.030Z,19.99
2022-10-06T00:20:10.200Z,19.98
2022-10-06T00:25:32.406Z,19.98
2022-10-06T00:30:56.485Z,19.96
2022-10-06T00:36:18.466Z,19.95
2022-10-06T00:41:40.132Z,19.93
2022-10-06T00:47:03.240Z,19.91
2022-10-06T00:52:28.896Z,19.92
2022-10-06T00:57:52.502Z,19.89
2022-10-06T01:03:37.302Z,19.90
2022-10-06T01:08:58.944Z,19.88
2022-10-06T01:14:22.874Z,19.88
2022-10-06T01:19:56.731Z,19.88
2022-10-06T01:25:19.286Z,19.84
2022-10-06T01:30:46.526Z,19.85
2022-10-06T01:36:08.389Z,19.83
2022-10-06T01:41:33.365Z,19.82
2022-10-06T01:46:55.035Z,19.81
2022-10-06T01:52:16.777Z,19.80
2022-10-06T01:57:42.391Z,19.80
2022-10-06T02:03:04.215Z,19.79
2022-10-06T02:08:26.208Z,19.79
2022-10-06T02:13:48.699Z,19.78
2022-10-06T02:19:10.510Z,19.76
2022-10-06T02:24:32.264Z,19.76
2022-10-06T02:29:53.981Z,19.76
2022-10-06T02:35:15.702Z,19.75
2022-10-06T02:40:37.324Z,19.74
2022-10-06T02:46:07.390Z,19.74
2022-10-06T02:51:30.146Z,19.73
2022-10-06T02:56:51.826Z,19.71
2022-10-06T03:02:13.563Z,19.69
2022-10-06T03:07:35.299Z,19.68
2022-10-06T03:12:57.027Z,19.68
2022-10-06T03:18:18.686Z,19.66
2022-10-06T03:23:40.422Z,19.66
2022-10-06T03:29:02.477Z,19.65
2022-10-06T03:34:24.240Z,19.64
2022-10-06T03:39:46.082Z,19.62
2022-10-06T03:45:08.493Z,19.62
2022-10-06T03:50:30.171Z,19.60
2022-10-06T03:56:11.423Z,19.61
2022-10-06T04:01:38.012Z,19.57
2022-10-06T04:06:59.740Z,19.57
2022-10-06T04:12:21.408Z,19.58
2022-10-06T04:17:43.211Z,19.57
2022-10-06T04:23:05.782Z,19.56
2022-10-06T04:28:28.106Z,19.54
2022-10-06T04:33:55.621Z,19.54
2022-10-06T04:39:17.235Z,19.52
2022-10-06T04:44:39.048Z,19.53
2022-10-06T04:50:00.819Z,19.52
2022-10-06T04:55:22.583Z,19.51
2022-10-06T05:00:44.444Z,19.51
2022-10-06T05:06:17.828Z,19.49
2022-10-06T05:11:39.756Z,19.49
2022-10-06T05:17:01.463Z,19.48
2022-10-06T05:22:23.175Z,19.48
2022-10-06T05:27:44.931Z,19.48
2022-10-06T05:33:07.512Z,19.47
2022-10-06T05:38:29.972Z,19.46
2022-10-06T05:43:53.139Z,19.44
2022-10-06T05:49:14.891Z,19.43
2022-10-06T05:54:36.600Z,19.43
2022-10-06T05:59:58.265Z,19.42
2022-10-06T06:05:19.932Z,19.41
2022-10-06T06:10:41.608Z,19.42
2022-10-06T06:16:06.172Z,19.44
2022-10-06T06:21:28.721Z,19.48
2022-10-06T06:26:50.527Z,19.52
2022-10-06T06:32:12.151Z,19.58
2022-10-06T06:37:33.817Z,19.63
2022-10-06T06:42:55.440Z,19.69
2022-10-06T06:48:17.104Z,19.77
2022-10-06T06:53:40.304Z,19.83
2022-10-06T06:59:09.147Z,19.89
2022-10-06T07:04:33.132Z,19.94
2022-10-06T07:09:54.839Z,20.02
2022-10-06T07:15:35.398Z,20.20
2022-10-06T07:21:16.004Z,21.12
2022-10-06T07:26:37.741Z,23.62
2022-10-06T07:31:59.429Z,25.13
2022-10-06T07:37:21.130Z,26.08
2022-10-06T07:42:49.359Z,27.06
2022-10-06T07:48:14.567Z,27.78
2022-10-06T07:53:37.541Z,28.43
2022-10-06T07:58:59.509Z,28.99
2022-10-06T08:04:21.193Z,29.23
2022-10-06T08:09:42.867Z,27.94
2022-10-06T08:15:11.483Z,26.11
2022-10-06T08:20:33.271Z,24.69
2022-10-06T08:25:56.460Z,23.71
2022-10-06T08:31:21.398Z,22.99
2022-10-06T08:36:57.002Z,22.46
2022-10-06T08:42:46.207Z,22.04
2022-10-06T08:48:16.670Z,21.73
2022-10-06T08:53:47.212Z,21.50
2022-10-06T08:59:12.498Z,21.32
2022-10-06T09:04:34.506Z,21.16
2022-10-06T09:10:33.689Z,21.04
2022-10-06T09:15:59.521Z,20.93
2022-10-06T09:21:35.114Z,20.85
2022-10-06T09:26:59.132Z,20.75
2022-10-06T09:32:23.190Z,20.69
2022-10-06T09:38:08.733Z,20.64
2022-10-06T09:43:31.572Z,20.56
2022-10-06T09:49:16.516Z,20.52
2022-10-06T09:54:38.960Z,20.44
2022-10-06T10:00:01.983Z,20.40
2022-10-06T10:05:25.167Z,20.35
2022-10-06T10:10:46.822Z,20.32
2022-10-06T10:16:10.910Z,20.28
2022-10-06T10:21:36.595Z,20.26
2022-10-06T10:27:24.079Z,20.23
2022-10-06T10:32:54.542Z,20.21
2022-10-06T10:38:20.105Z,20.18
2022-10-06T10:43:50.009Z,20.16
2022-10-06T10:49:27.882Z,20.13
2022-10-06T10:54:59.434Z,20.11
2022-10-06T11:00:25.457Z,20.09
2022-10-06T11:06:20.589Z,20.07
2022-10-06T11:11:54.341Z,20.06
2022-10-06T11:17:40.145Z,20.03
2022-10-06T11:23:28.830Z,20.03
2022-10-06T11:29:00.115Z,19.98
2022-10-06T11:34:21.753Z,19.98
2022-10-06T11:40:04.173Z,19.97
2022-10-06T11:46:00.184Z,19.97
2022-10-06T11:51:25.005Z,19.94
2022-10-06T11:56:46.726Z,19.94
2022-10-06T12:02:37.394Z,19.95
2022-10-06T12:07:59.449Z,19.90
2022-10-06T12:14:12.323Z,19.90
2022-10-06T12:19:19.972Z,19.86
2022-10-06T12:24:55.226Z,19.89
2022-10-06T12:30:30.541Z,19.89
2022-10-06T12:36:02.118Z,19.91
2022-10-06T12:41:59.665Z,19.91
2022-10-06T12:47:34.874Z,19.94
2022-10-06T12:53:05.625Z,19.93
2022-10-06T12:58:32.518Z,19.94
2022-10-06T13:03:55.438Z,19.93
2022-10-06T13:09:17.088Z,19.94
2022-10-06T13:14:38.753Z,19.94
2022-10-06T13:20:01.466Z,19.93
2022-10-06T13:25:23.406Z,19.92
2022-10-06T13:30:50.562Z,19.94
2022-10-06T13:36:13.619Z,19.94
2022-10-06T13:41:41.676Z,19.94
2022-10-06T13:47:15.870Z,19.95
2022-10-06T13:52:47.012Z,19.93
2022-10-06T13:58:10.169Z,19.92
2022-10-06T14:09:24.043Z,19.91
2022-10-06T14:14:50.670Z,19.91
2022-10-06T14:20:46.176Z,19.91
2022-10-06T14:26:09.516Z,19.90
2022-10-06T14:31:33.462Z,19.90
2022-10-06T14:36:55.511Z,19.89
2022-10-06T14:42:17.535Z,19.89
2022-10-06T14:47:39.260Z,19.87
2022-10-06T14:53:01.451Z,19.86
2022-10-06T14:58:23.103Z,19.87
2022-10-06T15:03:51.574Z,19.87
2022-10-06T15:09:13.527Z,19.86
2022-10-06T15:14:40.047Z,19.86
2022-10-06T15:20:01.811Z,19.84
2022-10-06T15:25:41.849Z,19.85
2022-10-06T15:31:03.549Z,19.82
2022-10-06T15:36:25.482Z,19.83
2022-10-06T15:41:47.796Z,19.83
2022-10-06T15:47:10.185Z,19.84
2022-10-06T15:52:33.956Z,19.83
2022-10-06T15:57:55.901Z,19.83
2022-10-06T16:03:38.728Z,19.83
2022-10-06T16:09:02.669Z,19.79
2022-10-06T16:14:25.221Z,19.79
2022-10-06T16:19:47.329Z,19.77
2022-10-06T16:25:09.188Z,19.76
2022-10-06T16:30:30.962Z,19.76
2022-10-06T16:35:57.076Z,19.73
2022-10-06T16:41:19.558Z,19.71
2022-10-06T16:46:41.339Z,19.73
2022-10-06T16:52:03.003Z,19.65
2022-10-06T16:57:25.144Z,19.68
2022-10-06T17:02:46.893Z,19.71
2022-10-06T17:08:08.578Z,19.76
2022-10-06T17:13:30.351Z,19.94
2022-10-06T17:18:55.782Z,20.18
2022-10-06T17:24:18.307Z,20.34
2022-10-06T17:29:40.232Z,20.49
2022-10-06T17:35:02.044Z,20.56
2022-10-06T17:40:23.722Z,20.61
2022-10-06T17:45:46.437Z,20.63
2022-10-06T17:51:08.983Z,20.60
2022-10-06T17:56:35.757Z,20.59
2022-10-06T18:01:59.906Z,20.56
2022-10-06T18:07:22.198Z,20.52
2022-10-06T18:12:44.200Z,20.50
2022-10-06T18:18:06.127Z,20.49
2022-10-06T18:23:28.273Z,20.48
2022-10-06T18:28:50.425Z,20.49
2022-10-06T18:39:54.435Z,20.45
2022-10-06T18:45:39.262Z,20.43
2022-10-06T18:51:01.985Z,20.44
2022-10-06T18:56:29.741Z,20.46
2022-10-06T19:01:51.628Z,20.45
2022-10-06T19:07:13.337Z,20.49
2022-10-06T19:12:34.986Z,20.55
2022-10-06T19:17:56.631Z,20.65
2022-10-06T19:23:18.351Z,20.72
2022-10-06T19:28:40.411Z,20.80
2022-10-06T19:34:04.293Z,20.84
2022-10-06T19:39:28.468Z,20.90
2022-10-06T19:44:50.155Z,20.96
2022-10-06T19:50:12.981Z,21.01
2022-10-06T19:55:34.767Z,21.04
2022-10-06T20:00:56.404Z,21.09
2022-10-06T20:06:18.535Z,21.11
2022-10-06T20:11:43.805Z,21.10
2022-10-06T20:17:06.190Z,21.03
2022-10-06T20:22:28.241Z,20.96
2022-10-06T20:27:50.393Z,20.88
2022-10-06T20:33:12.026Z,20.82
2022-10-06T20:38:52.051Z,20.73
2022-10-06T20:44:13.844Z,20.66
2022-10-06T20:49:35.584Z,20.60
2022-10-06T20:54:57.302Z,20.54
2022-10-06T21:00:19.079Z,20.51
2022-10-06T21:05:48.465Z,20.45
2022-10-06T21:11:14.979Z,20.40
2022-10-06T21:16:37.681Z,20.38
2022-10-06T21:22:00.676Z,20.34
2022-10-06T21:27:22.285Z,20.32
2022-10-06T21:32:44.169Z,20.33
2022-10-06T21:38:07.377Z,20.31
2022-10-06T21:43:29.095Z,20.28
2022-10-06T21:48:55.881Z,20.23
2022-10-06T21:54:18.980Z,20.22
2022-10-06T21:59:40.597Z,20.20
2022-10-06T22:05:02.301Z,20.16
2022-10-06T22:10:23.993Z,20.15
2022-10-06T22:15:45.677Z,20.15
2022-10-06T22:21:27.423Z,20.16
2022-10-06T22:26:49.903Z,20.10
2022-10-06T22:32:11.530Z,20.08
2022-10-06T22:37:33.216Z,20.08
2022-10-06T22:42:54.836Z,20.05
2022-10-06T22:48:16.441Z,20.04
2022-10-06T22:53:38.111Z,20.01
2022-10-06T22:59:00.658Z,20.00
2022-10-06T23:04:22.414Z,19.99
2022-10-06T23:09:44.145Z,19.97
2022-10-06T23:15:06.300Z,19.95
2022-10-06T23:20:27.948Z,19.93
2022-10-06T23:25:49.571Z,19.90
2022-10-06T23:31:11.943Z,19.88
2022-10-06T23:36:33.684Z,19.87
2022-10-06T23:41:55.294Z,19.86
2022-10-06T23:47:17.004Z,19.86
2022-10-06T23:52:38.695Z,19.84
2022-10-06T23:58:00.398Z,19.83
